createdAt,value
2022-08-29T00:00:23.220Z,52.82
2022-08-29T00:02:58.125Z,53.66
2022-08-29T00:05:33.333Z,53.07
2022-08-29T00:08:01.665Z,52.52
2022-08-29T00:10:43.566Z,52.38
2022-08-29T00:13:15.089Z,52.39
2022-08-29T00:15:45.070Z,52.88
2022-08-29T00:18:19.814Z,53.91
2022-08-29T00:20:52.874Z,53.58
2022-08-29T00:23:22.613Z,52.88
2022-08-29T00:25:49.895Z,52.43
2022-08-29T00:28:17.358Z,52.51
2022-08-29T00:30:44.814Z,52.58
2022-08-29T00:33:16.504Z,52.10
2022-08-29T00:35:49.163Z,50.80
2022-08-29T00:38:19.158Z,50.44
2022-08-29T00:40:54.212Z,50.31
2022-08-29T00:43:35.068Z,50.90
2022-08-29T00:46:13.944Z,50.45
2022-08-29T00:48:42.420Z,50.36
2022-08-29T00:51:16.854Z,51.46
2022-08-29T00:53:48.191Z,51.17
2022-08-29T00:56:17.496Z,50.51
2022-08-29T00:58:57.694Z,51.47
2022-08-29T01:01:27.444Z,50.98
2022-08-29T01:03:55.010Z,53.76
2022-08-29T01:06:26.367Z,52.39
2022-08-29T01:08:57.344Z,52.60
2022-08-29T01:11:48.325Z,53.84
2022-08-29T01:14:21.181Z,53.68
2022-08-29T01:16:56.623Z,53.27
2022-08-29T01:20:08.581Z,54.35
2022-08-29T01:22:56.842Z,54.29
2022-08-29T01:25:28.937Z,53.32
2022-08-29T01:28:23.878Z,53.95
2022-08-29T01:31:06.541Z,53.61
2022-08-29T01:33:59.541Z,54.97
2022-08-29T01:36:56.192Z,54.99
2022-08-29T01:39:29.875Z,54.15
2022-08-29T01:42:05.462Z,53.98
2022-08-29T01:44:33.568Z,53.03
2022-08-29T01:47:03.373Z,51.99
2022-08-29T01:49:33.680Z,51.80
2022-08-29T01:52:02.374Z,51.99
2022-08-29T01:54:31.321Z,52.06
2022-08-29T01:56:58.636Z,51.35
2022-08-29T01:59:29.098Z,51.82
2022-08-29T02:02:16.150Z,51.45
2022-08-29T02:04:47.401Z,51.50
2022-08-29T02:07:20.042Z,51.96
2022-08-29T02:09:48.615Z,51.09
2022-08-29T02:12:16.637Z,51.13
2022-08-29T02:14:44.689Z,51.57
2022-08-29T02:17:12.182Z,51.63
2022-08-29T02:19:39.891Z,52.79
2022-08-29T02:22:09.681Z,52.14
2022-08-29T02:24:37.601Z,51.78
2022-08-29T02:27:05.481Z,51.65
2022-08-29T02:29:37.723Z,51.97
2022-08-29T02:32:14.071Z,51.63
2022-08-29T02:34:47.657Z,51.21
2022-08-29T02:37:16.886Z,51.00
2022-08-29T02:39:45.656Z,50.58
2022-08-29T02:42:14.986Z,50.34
2022-08-29T02:44:42.113Z,51.38
2022-08-29T02:47:09.508Z,51.25
2022-08-29T02:49:36.836Z,51.18
2022-08-29T02:52:06.829Z,51.47
2022-08-29T02:54:35.328Z,52.07
2022-08-29T02:57:05.013Z,51.59
2022-08-29T02:59:34.313Z,51.74
2022-08-29T03:02:04.358Z,51.95
2022-08-29T03:04:31.640Z,52.27
2022-08-29T03:07:01.158Z,52.35
2022-08-29T03:09:35.864Z,52.26
2022-08-29T03:12:03.378Z,51.08
2022-08-29T03:14:30.549Z,51.18
2022-08-29T03:17:00.026Z,51.98
2022-08-29T03:19:27.154Z,52.49
2022-08-29T03:22:01.008Z,53.21
2022-08-29T03:24:28.488Z,53.97
2022-08-29T03:26:56.748Z,53.79
2022-08-29T03:29:25.020Z,53.14
2022-08-29T03:31:52.454Z,53.22
2022-08-29T03:34:20.567Z,53.11
2022-08-29T03:36:47.666Z,53.46
2022-08-29T03:39:14.857Z,52.80
2022-08-29T03:41:45.712Z,54.11
2022-08-29T03:44:15.608Z,53.79
2022-08-29T03:46:45.308Z,54.71
2022-08-29T03:49:15.700Z,53.28
2022-08-29T03:51:43.206Z,53.88
2022-08-29T03:54:10.342Z,53.59
2022-08-29T03:56:40.164Z,53.46
2022-08-29T03:59:12.874Z,53.05
2022-08-29T04:01:41.749Z,53.17
2022-08-29T04:04:29.310Z,52.53
2022-08-29T04:06:56.450Z,53.17
2022-08-29T04:09:23.673Z,54.00
2022-08-29T04:11:53.510Z,54.26
2022-08-29T04:14:21.238Z,53.64
2022-08-29T04:16:50.101Z,54.10
2022-08-29T04:19:22.147Z,53.12
2022-08-29T04:21:52.525Z,52.55
2022-08-29T04:24:21.008Z,52.23
2022-08-29T04:26:48.175Z,52.68
2022-08-29T04:29:15.451Z,51.83
2022-08-29T04:31:44.042Z,52.28
2022-08-29T04:34:13.694Z,52.57
2022-08-29T04:36:45.511Z,53.37
2022-08-29T04:39:13.786Z,52.81
2022-08-29T04:41:42.502Z,52.55
2022-08-29T04:44:12.433Z,52.17
2022-08-29T04:46:40.014Z,53.23
2022-08-29T04:49:11.436Z,52.93
2022-08-29T04:51:43.528Z,52.59
2022-08-29T04:54:12.002Z,53.24
2022-08-29T04:56:39.957Z,52.20
2022-08-29T04:59:15.993Z,51.75
2022-08-29T05:01:45.917Z,52.91
2022-08-29T05:04:14.635Z,52.74
2022-08-29T05:06:42.512Z,52.11
2022-08-29T05:09:09.692Z,53.52
2022-08-29T05:11:37.251Z,52.97
2022-08-29T05:14:04.496Z,52.90
2022-08-29T05:16:35.154Z,52.00
2022-08-29T05:19:02.742Z,51.95
2022-08-29T05:21:36.649Z,52.27
2022-08-29T05:24:09.892Z,52.41
2022-08-29T05:26:43.223Z,52.38
2022-08-29T05:29:13.416Z,51.52
2022-08-29T05:31:42.226Z,53.82
2022-08-29T05:34:32.201Z,52.67
2022-08-29T05:37:00.872Z,52.67
2022-08-29T05:39:28.117Z,52.15
2022-08-29T05:41:57.168Z,50.19
2022-08-29T05:44:28.772Z,50.96
2022-08-29T05:47:00.457Z,51.30
2022-08-29T05:49:28.025Z,50.99
2022-08-29T05:51:56.284Z,51.54
2022-08-29T05:54:25.439Z,52.18
2022-08-29T05:56:57.437Z,52.39
2022-08-29T05:59:24.656Z,51.72
2022-08-29T06:01:51.945Z,52.37
2022-08-29T06:04:19.431Z,51.77
2022-08-29T06:06:48.652Z,51.35
2022-08-29T06:09:15.790Z,51.34
2022-08-29T06:11:48.276Z,51.52
2022-08-29T06:14:16.899Z,49.85
2022-08-29T06:16:44.167Z,48.26
2022-08-29T06:19:12.034Z,46.65
2022-08-29T06:21:39.552Z,44.80
2022-08-29T06:24:07.248Z,42.91
2022-08-29T06:26:35.485Z,43.09
2022-08-29T06:29:10.529Z,44.27
2022-08-29T06:31:38.960Z,45.10
2022-08-29T06:34:07.434Z,42.38
2022-08-29T06:36:37.904Z,44.02
2022-08-29T06:39:09.524Z,45.12
2022-08-29T06:41:42.171Z,46.80
2022-08-29T06:44:09.933Z,47.50
2022-08-29T06:46:41.576Z,45.97
2022-08-29T06:49:13.613Z,45.46
2022-08-29T06:51:42.528Z,46.37
2022-08-29T06:54:12.357Z,45.82
2022-08-29T06:56:42.614Z,46.72
2022-08-29T06:59:10.179Z,46.89
2022-08-29T07:01:37.691Z,45.08
2022-08-29T07:04:04.969Z,46.19
2022-08-29T07:06:36.203Z,43.31
2022-08-29T07:09:05.360Z,43.19
2022-08-29T07:11:36.610Z,43.86
2022-08-29T07:14:07.755Z,44.07
2022-08-29T07:16:38.896Z,43.13
2022-08-29T07:19:08.198Z,42.74
2022-08-29T07:21:35.703Z,43.06
2022-08-29T07:24:03.561Z,42.97
2022-08-29T07:26:36.916Z,44.74
2022-08-29T07:29:15.909Z,44.77
2022-08-29T07:31:43.287Z,48.00
2022-08-29T07:34:10.840Z,46.42
2022-08-29T07:36:38.986Z,46.73
2022-08-29T07:39:12.744Z,47.50
2022-08-29T07:41:42.015Z,46.56
2022-08-29T07:44:09.982Z,45.37
2022-08-29T07:46:37.845Z,45.19
2022-08-29T07:49:05.719Z,41.85
2022-08-29T07:51:33.168Z,41.52
2022-08-29T07:54:00.449Z,42.84
2022-08-29T07:56:43.979Z,44.00
2022-08-29T07:59:14.345Z,45.09
2022-08-29T08:01:41.554Z,43.61
2022-08-29T08:04:09.521Z,43.62
2022-08-29T08:06:38.170Z,43.32
2022-08-29T08:09:07.872Z,45.99
2022-08-29T08:11:38.698Z,44.63
2022-08-29T08:14:05.810Z,46.03
2022-08-29T08:16:33.722Z,46.28
2022-08-29T08:19:04.053Z,44.97
2022-08-29T08:21:31.124Z,43.45
2022-08-29T08:23:58.470Z,43.64
2022-08-29T08:26:28.198Z,43.53
2022-08-29T08:28:57.812Z,43.41
2022-08-29T08:31:25.457Z,44.19
2022-08-29T08:33:52.764Z,42.62
2022-08-29T08:36:22.677Z,43.36
2022-08-29T08:38:52.183Z,43.99
2022-08-29T08:42:16.829Z,43.53
2022-08-29T08:45:08.966Z,43.05
2022-08-29T08:48:06.323Z,44.73
2022-08-29T08:51:05.971Z,43.23
2022-08-29T08:53:41.208Z,43.02
2022-08-29T08:56:34.188Z,44.01
2022-08-29T08:59:21.060Z,43.99
2022-08-29T09:02:35.389Z,44.70
2022-08-29T09:05:29.990Z,44.40
2022-08-29T09:08:28.915Z,43.80
2022-08-29T09:11:13.450Z,44.03
2022-08-29T09:14:08.594Z,43.43
2022-08-29T09:16:44.995Z,44.44
2022-08-29T09:19:17.237Z,42.69
2022-08-29T09:21:57.656Z,40.80
2022-08-29T09:24:55.867Z,37.65
2022-08-29T09:27:30.668Z,35.86
2022-08-29T09:30:14.334Z,31.80
2022-08-29T09:32:56.383Z,33.85
2022-08-29T09:35:41.658Z,35.05
2022-08-29T09:38:20.269Z,34.31
2022-08-29T09:41:10.674Z,35.53
2022-08-29T09:43:40.643Z,34.40
2022-08-29T09:46:16.390Z,33.68
2022-08-29T09:48:57.866Z,31.05
2022-08-29T09:51:33.223Z,30.05
2022-08-29T09:54:23.364Z,31.22
2022-08-29T09:57:08.893Z,32.56
2022-08-29T09:59:46.212Z,35.10
2022-08-29T10:02:19.761Z,36.30
2022-08-29T10:05:00.460Z,38.36
2022-08-29T10:07:50.044Z,39.12
2022-08-29T10:10:18.709Z,37.03
2022-08-29T10:13:08.478Z,35.33
2022-08-29T10:15:51.190Z,33.04
2022-08-29T10:18:48.528Z,31.21
2022-08-29T10:21:47.523Z,32.31
2022-08-29T10:24:44.097Z,29.99
2022-08-29T10:27:32.099Z,27.68
2022-08-29T10:30:13.766Z,29.01
2022-08-29T10:34:01.948Z,27.02
2022-08-29T10:36:39.477Z,27.74
2022-08-29T10:39:34.785Z,27.35
2022-08-29T10:42:19.437Z,27.15
2022-08-29T10:45:07.078Z,28.24
2022-08-29T10:47:41.316Z,26.62
2022-08-29T10:50:43.641Z,27.16
2022-08-29T10:53:25.261Z,27.16
2022-08-29T10:56:05.874Z,28.48
2022-08-29T10:59:04.127Z,25.03
2022-08-29T11:02:32.756Z,25.96
2022-08-29T11:05:07.229Z,25.43
2022-08-29T11:08:00.687Z,25.91
2022-08-29T11:10:39.844Z,29.69
2022-08-29T11:13:19.967Z,30.72
2022-08-29T11:16:15.522Z,31.73
2022-08-29T11:19:05.762Z,30.51
2022-08-29T11:21:44.253Z,32.02
2022-08-29T11:24:17.108Z,30.94
2022-08-29T11:26:44.050Z,31.68
2022-08-29T11:29:38.432Z,30.47
2022-08-29T11:32:40.057Z,31.50
2022-08-29T11:35:51.652Z,33.05
2022-08-29T11:38:55.187Z,34.69
2022-08-29T11:41:27.707Z,34.94
2022-08-29T11:44:38.009Z,36.05
2022-08-29T11:47:40.732Z,36.71
2022-08-29T11:50:17.452Z,34.11
2022-08-29T11:53:09.531Z,34.79
2022-08-29T11:55:39.503Z,35.82
2022-08-29T11:58:15.797Z,35.78
2022-08-29T12:00:45.559Z,35.08
2022-08-29T12:03:34.877Z,33.06
2022-08-29T12:06:30.754Z,33.37
2022-08-29T12:09:13.876Z,31.12
2022-08-29T12:12:05.426Z,30.77
2022-08-29T12:14:37.890Z,30.59
2022-08-29T12:17:51.286Z,30.45
2022-08-29T12:20:37.527Z,29.90
2022-08-29T12:23:13.830Z,31.68
2022-08-29T12:26:03.721Z,30.65
2022-08-29T12:28:47.097Z,30.36
2022-08-29T12:31:35.960Z,29.06
2022-08-29T12:34:05.691Z,29.65
2022-08-29T12:37:16.352Z,30.28
2022-08-29T12:39:49.227Z,30.14
2022-08-29T12:42:16.174Z,30.64
2022-08-29T12:45:00.752Z,29.74
2022-08-29T12:47:38.023Z,28.51
2022-08-29T12:50:24.096Z,27.74
2022-08-29T12:53:26.247Z,27.85
2022-08-29T12:56:01.395Z,28.64
2022-08-29T12:58:40.188Z,28.03
2022-08-29T13:01:25.427Z,29.26
2022-08-29T13:04:15.157Z,29.55
2022-08-29T13:07:02.637Z,28.94
2022-08-29T13:09:52.606Z,28.95
2022-08-29T13:12:29.524Z,30.67
2022-08-29T13:15:01.612Z,31.80
2022-08-29T13:17:36.189Z,31.51
2022-08-29T13:20:46.164Z,31.78
2022-08-29T13:23:13.209Z,31.77
2022-08-29T13:26:05.001Z,30.11
2022-08-29T13:28:56.749Z,31.16
2022-08-29T13:31:32.424Z,30.22
2022-08-29T13:34:02.149Z,31.64
2022-08-29T13:36:47.231Z,30.75
2022-08-29T13:39:17.250Z,30.32
2022-08-29T13:41:49.409Z,32.84
2022-08-29T13:44:25.832Z,33.04
2022-08-29T13:46:57.751Z,32.04
2022-08-29T13:49:29.780Z,31.94
2022-08-29T13:51:58.294Z,32.28
2022-08-29T13:54:29.462Z,32.97
2022-08-29T13:57:03.326Z,33.29
2022-08-29T13:59:37.084Z,34.54
2022-08-29T14:02:09.227Z,34.07
2022-08-29T14:04:40.966Z,33.86
2022-08-29T14:07:31.444Z,33.72
2022-08-29T14:09:59.611Z,34.63
2022-08-29T14:12:33.000Z,33.93
2022-08-29T14:15:09.669Z,34.67
2022-08-29T14:17:40.376Z,34.40
2022-08-29T14:20:12.646Z,33.90
2022-08-29T14:22:42.790Z,33.83
2022-08-29T14:25:14.140Z,34.15
2022-08-29T14:27:42.024Z,33.79
2022-08-29T14:30:12.493Z,34.66
2022-08-29T14:32:39.950Z,34.56
2022-08-29T14:35:09.297Z,34.96
2022-08-29T14:37:39.399Z,35.58
2022-08-29T14:40:09.479Z,34.95
2022-08-29T14:42:41.727Z,35.90
2022-08-29T14:45:15.044Z,35.32
2022-08-29T14:47:43.636Z,35.54
2022-08-29T14:50:14.261Z,36.15
2022-08-29T14:52:44.769Z,36.29
2022-08-29T14:55:13.340Z,37.68
2022-08-29T14:57:43.418Z,36.82
2022-08-29T15:00:16.788Z,36.96
2022-08-29T15:02:46.772Z,38.11
2022-08-29T15:05:14.037Z,38.45
2022-08-29T15:07:42.249Z,38.11
2022-08-29T15:10:12.828Z,38.72
2022-08-29T15:12:41.039Z,38.61
2022-08-29T15:15:09.251Z,38.74
2022-08-29T15:17:36.888Z,38.92
2022-08-29T15:22:58.308Z,39.75
2022-08-29T15:25:26.222Z,39.84
2022-08-29T15:27:53.427Z,41.08
2022-08-29T15:30:25.107Z,40.43
2022-08-29T15:32:55.145Z,40.46
2022-08-29T15:35:24.857Z,38.40
2022-08-29T15:37:53.663Z,39.62
2022-08-29T15:40:21.325Z,39.91
2022-08-29T15:42:48.459Z,39.49
2022-08-29T15:45:18.043Z,39.72
2022-08-29T15:47:50.232Z,40.38
2022-08-29T15:50:21.458Z,40.35
2022-08-29T15:52:48.543Z,39.79
2022-08-29T15:55:15.904Z,40.61
2022-08-29T15:57:52.522Z,41.13
2022-08-29T16:00:29.506Z,41.14
2022-08-29T16:03:00.386Z,40.94
2022-08-29T16:05:27.669Z,41.39
2022-08-29T16:07:54.843Z,41.06
2022-08-29T16:10:25.966Z,41.39
2022-08-29T16:12:53.275Z,41.25
2022-08-29T16:15:20.818Z,42.28
2022-08-29T16:17:47.968Z,42.29
2022-08-29T16:20:15.451Z,40.22
2022-08-29T16:22:43.105Z,41.65
2022-08-29T16:25:12.960Z,40.96
2022-08-29T16:27:40.465Z,42.18
2022-08-29T16:30:10.307Z,41.86
2022-08-29T16:32:38.576Z,42.51
2022-08-29T16:35:07.283Z,42.00
2022-08-29T16:37:34.786Z,42.81
2022-08-29T16:40:04.293Z,41.06
2022-08-29T16:42:34.221Z,43.19
2022-08-29T16:45:06.435Z,42.68
2022-08-29T16:47:35.120Z,43.32
2022-08-29T16:50:03.745Z,43.77
2022-08-29T16:52:31.184Z,43.27
2022-08-29T16:54:58.387Z,42.63
2022-08-29T16:57:25.608Z,42.83
2022-08-29T16:59:52.704Z,43.91
2022-08-29T17:02:19.884Z,42.45
2022-08-29T17:04:48.950Z,42.73
2022-08-29T17:07:18.649Z,43.45
2022-08-29T17:09:45.762Z,43.36
2022-08-29T17:12:13.028Z,44.81
2022-08-29T17:14:41.728Z,45.14
2022-08-29T17:17:08.971Z,44.37
2022-08-29T17:19:36.150Z,44.19
2022-08-29T17:22:04.777Z,43.81
2022-08-29T17:24:31.934Z,44.33
2022-08-29T17:26:59.047Z,44.95
2022-08-29T17:29:26.199Z,44.75
2022-08-29T17:31:53.647Z,45.49
2022-08-29T17:34:20.722Z,44.63
2022-08-29T17:36:49.788Z,44.24
2022-08-29T17:39:17.271Z,44.43
2022-08-29T17:41:50.932Z,45.92
2022-08-29T17:44:18.025Z,45.70
2022-08-29T17:46:45.540Z,45.02
2022-08-29T17:49:12.992Z,46.28
2022-08-29T17:51:42.211Z,46.59
2022-08-29T17:54:14.938Z,46.81
2022-08-29T17:56:47.602Z,46.71
2022-08-29T17:59:18.062Z,45.84
2022-08-29T18:01:45.805Z,46.66
2022-08-29T18:04:14.079Z,47.41
2022-08-29T18:06:42.049Z,46.61
2022-08-29T18:09:09.673Z,46.31
2022-08-29T18:11:44.161Z,45.77
2022-08-29T18:14:13.152Z,45.73
2022-08-29T18:16:40.390Z,47.87
2022-08-29T18:19:08.233Z,46.17
2022-08-29T18:21:36.413Z,46.93
2022-08-29T18:24:06.524Z,47.87
2022-08-29T18:26:34.943Z,47.26
2022-08-29T18:29:06.704Z,47.15
2022-08-29T18:31:33.851Z,47.10
2022-08-29T18:34:01.608Z,46.63
2022-08-29T18:36:31.698Z,46.49
2022-08-29T18:38:59.593Z,47.37
2022-08-29T18:41:27.421Z,47.82
2022-08-29T18:43:54.592Z,48.53
2022-08-29T18:46:22.000Z,46.94
2022-08-29T18:48:51.651Z,46.78
2022-08-29T18:51:21.775Z,46.39
2022-08-29T18:53:49.266Z,47.78
2022-08-29T18:56:19.153Z,47.66
2022-08-29T18:58:46.204Z,48.36
2022-08-29T19:01:27.387Z,48.56
2022-08-29T19:03:57.876Z,47.84
2022-08-29T19:06:25.924Z,51.08
2022-08-29T19:08:55.167Z,49.26
2022-08-29T19:11:23.029Z,49.60
2022-08-29T19:13:52.445Z,49.61
2022-08-29T19:16:21.732Z,50.10
2022-08-29T19:18:49.589Z,49.51
2022-08-29T19:21:16.878Z,49.74
2022-08-29T19:23:52.482Z,50.05
2022-08-29T19:26:32.326Z,51.08
2022-08-29T19:29:12.620Z,50.86
2022-08-29T19:31:41.819Z,49.94
2022-08-29T19:34:12.220Z,51.00
2022-08-29T19:36:47.040Z,51.59
2022-08-29T19:39:15.791Z,50.29
2022-08-29T19:41:45.333Z,49.27
2022-08-29T19:44:12.507Z,49.12
2022-08-29T19:46:46.007Z,49.49
2022-08-29T19:49:16.378Z,49.02
2022-08-29T19:51:44.382Z,48.85
2022-08-29T19:54:13.889Z,49.78
2022-08-29T19:56:41.217Z,49.46
2022-08-29T19:59:14.680Z,49.93
2022-08-29T20:01:45.123Z,50.11
2022-08-29T20:04:12.640Z,50.06
2022-08-29T20:06:39.907Z,49.79
2022-08-29T20:09:07.615Z,50.66
2022-08-29T20:11:43.564Z,48.91
2022-08-29T20:14:22.335Z,48.74
2022-08-29T20:16:55.070Z,49.62
2022-08-29T20:19:22.625Z,49.25
2022-08-29T20:21:50.825Z,50.07
2022-08-29T20:24:19.512Z,49.71
2022-08-29T20:26:49.775Z,49.50
2022-08-29T20:29:20.767Z,48.94
2022-08-29T20:31:50.550Z,49.21
2022-08-29T20:34:20.251Z,48.52
2022-08-29T20:37:06.167Z,48.75
2022-08-29T20:39:36.083Z,49.73
2022-08-29T20:42:04.360Z,49.43
2022-08-29T20:44:37.686Z,48.74
2022-08-29T20:47:08.115Z,49.74
2022-08-29T20:49:45.163Z,50.60
2022-08-29T20:52:14.779Z,50.28
2022-08-29T20:54:42.170Z,49.87
2022-08-29T20:57:14.966Z,51.67
2022-08-29T20:59:44.215Z,51.71
2022-08-29T21:02:11.592Z,50.66
2022-08-29T21:04:57.721Z,50.67
2022-08-29T21:07:25.734Z,50.82
2022-08-29T21:09:54.182Z,50.84
2022-08-29T21:12:21.784Z,51.03
2022-08-29T21:14:54.826Z,50.58
2022-08-29T21:17:22.383Z,50.37
2022-08-29T21:19:51.659Z,50.76
2022-08-29T21:22:22.979Z,50.41
2022-08-29T21:24:54.199Z,51.58
2022-08-29T21:27:21.511Z,50.53
2022-08-29T21:29:55.728Z,50.54
2022-08-29T21:32:23.177Z,50.43
2022-08-29T21:34:50.363Z,50.88
2022-08-29T21:37:18.278Z,50.67
2022-08-29T21:39:47.793Z,49.43
2022-08-29T21:42:14.984Z,49.24
2022-08-29T21:44:42.661Z,49.96
2022-08-29T21:47:09.844Z,49.35
2022-08-29T21:49:36.946Z,50.34
2022-08-29T21:52:04.471Z,49.57
2022-08-29T21:54:31.517Z,50.80
2022-08-29T21:56:58.864Z,49.40
2022-08-29T21:59:27.919Z,49.75
2022-08-29T22:01:56.066Z,49.75
2022-08-29T22:04:28.063Z,49.80
2022-08-29T22:06:59.207Z,50.42
2022-08-29T22:09:30.191Z,50.88
2022-08-29T22:11:58.508Z,49.70
2022-08-29T22:14:47.078Z,49.60
2022-08-29T22:17:16.084Z,51.81
2022-08-29T22:19:43.258Z,50.26
2022-08-29T22:22:11.152Z,50.81
2022-08-29T22:24:38.559Z,50.86
2022-08-29T22:27:06.116Z,50.07
2022-08-29T22:29:35.391Z,49.64
2022-08-29T22:32:02.799Z,48.80
2022-08-29T22:34:29.989Z,48.38
2022-08-29T22:36:57.066Z,49.91
2022-08-29T22:39:24.291Z,49.76
2022-08-29T22:41:51.451Z,50.07
2022-08-29T22:47:08.233Z,49.61
2022-08-29T22:49:37.121Z,50.52
2022-08-29T22:52:04.836Z,50.05
2022-08-29T22:54:40.422Z,49.82
2022-08-29T22:57:14.868Z,49.88
2022-08-29T22:59:46.008Z,49.32
2022-08-29T23:02:13.813Z,49.60
2022-08-29T23:04:42.109Z,49.85
2022-08-29T23:07:11.663Z,49.86
2022-08-29T23:09:43.368Z,51.29
2022-08-29T23:12:13.531Z,49.93
2022-08-29T23:14:43.487Z,50.91
2022-08-29T23:17:10.688Z,49.67
2022-08-29T23:19:41.035Z,51.32
2022-08-29T23:22:10.633Z,51.74
2022-08-29T23:24:49.764Z,51.11
2022-08-29T23:27:30.257Z,51.29
2022-08-29T23:29:59.472Z,51.38
2022-08-29T23:32:27.529Z,51.00
2022-08-29T23:34:55.197Z,49.61
2022-08-29T23:37:25.258Z,50.97
2022-08-29T23:39:52.366Z,51.19
2022-08-29T23:42:19.624Z,49.70
2022-08-29T23:44:48.380Z,49.71
2022-08-29T23:47:16.980Z,50.00
2022-08-29T23:49:44.495Z,49.89
2022-08-29T23:52:13.952Z,49.46
2022-08-29T23:54:41.324Z,49.16
2022-08-29T23:57:10.975Z,49.91
2022-08-29T23:59:57.167Z,48.52
